sensor_id;sensor_type;location;lat;lon;timestamp;temperature;humidity
23497;DHT22;11925;48.122;11.560;2023-10-09T00:00:14;16.30;99.90
23497;DHT22;11925;48.122;11.560;2023-10-09T00:02:56;16.20;99.90
23497;DHT22;11925;48.122;11.560;2023-10-09T00:05:28;16.20;99.90
23497;DHT22;11925;48.122;11.560;2023-10-09T00:08:06;16.30;99.90
23497;DHT22;11925;48.122;11.560;2023-10-09T00:10:39;16.30;99.90
23497;DHT22;11925;48.122;11.560;2023-10-09T00:13:16;16.20;99.90
23497;DHT22;11925;48.122;11.560;2023-10-09T00:15:45;16.20;99.90
23497;DHT22;11925;48.122;11.560;2023-10-09T00:18:24;16.20;99.90
23497;DHT22;11925;48.122;11.560;2023-10-09T00:20:57;16.20;99.90
23497;DHT22;11925;48.122;11.560;2023-10-09T00:23:38;16.20;99.90
23497;DHT22;11925;48.122;11.560;2023-10-09T00:26:09;16.20;99.90
23497;DHT22;11925;48.122;11.560;2023-10-09T00:28:47;16.20;99.90
23497;DHT22;11925;48.122;11.560;2023-10-09T00:31:18;16.20;99.90
23497;DHT22;11925;48.122;11.560;2023-10-09T00:33:57;16.20;99.90
23497;DHT22;11925;48.122;11.560;2023-10-09T00:36:35;16.20;99.90
23497;DHT22;11925;48.122;11.560;2023-10-09T00:39:18;16.20;99.90
23497;DHT22;11925;48.122;11.560;2023-10-09T00:42:02;16.20;99.90
23497;DHT22;11925;48.122;11.560;2023-10-09T00:44:33;16.20;99.90
23497;DHT22;11925;48.122;11.560;2023-10-09T00:47:07;16.20;99.90
23497;DHT22;11925;48.122;11.560;2023-10-09T00:49:50;16.20;99.90
23497;DHT22;11925;48.122;11.560;2023-10-09T00:52:26;16.20;99.90
23497;DHT22;11925;48.122;11.560;2023-10-09T00:55:00;16.20;99.90
23497;DHT22;11925;48.122;11.560;2023-10-09T00:57:34;16.20;99.90
23497;DHT22;11925;48.122;11.560;2023-10-09T01:00:08;16.20;99.90
23497;DHT22;11925;48.122;11.560;2023-10-09T01:02:53;16.20;99.90
23497;DHT22;11925;48.122;11.560;2023-10-09T01:05:43;16.20;99.90
23497;DHT22;11925;48.122;11.560;2023-10-09T01:08:19;16.20;99.90
23497;DHT22;11925;48.122;11.560;2023-10-09T01:11:11;16.10;99.90
23497;DHT22;11925;48.122;11.560;2023-10-09T01:13:47;16.10;99.90
23497;DHT22;11925;48.122;11.560;2023-10-09T01:16:22;16.20;99.90
23497;DHT22;11925;48.122;11.560;2023-10-09T01:18:52;16.20;99.90
23497;DHT22;11925;48.122;11.560;2023-10-09T01:21:24;16.10;99.90
23497;DHT22;11925;48.122;11.560;2023-10-09T01:23:55;16.20;99.90
23497;DHT22;11925;48.122;11.560;2023-10-09T01:26:32;16.10;99.90
23497;DHT22;11925;48.122;11.560;2023-10-09T01:29:07;16.10;99.90
23497;DHT22;11925;48.122;11.560;2023-10-09T01:31:38;16.10;99.90
23497;DHT22;11925;48.122;11.560;2023-10-09T01:34:11;16.10;99.90
23497;DHT22;11925;48.122;11.560;2023-10-09T01:36:42;16.10;99.90
23497;DHT22;11925;48.122;11.560;2023-10-09T01:39:11;16.10;99.90
23497;DHT22;11925;48.122;11.560;2023-10-09T01:41:51;16.10;99.90
23497;DHT22;11925;48.122;11.560;2023-10-09T01:44:26;16.10;99.90
23497;DHT22;11925;48.122;11.560;2023-10-09T01:46:57;16.20;99.90
23497;DHT22;11925;48.122;11.560;2023-10-09T01:49:25;16.10;99.90
23497;DHT22;11925;48.122;11.560;2023-10-09T01:51:59;16.10;99.90
23497;DHT22;11925;48.122;11.560;2023-10-09T01:54:36;16.10;99.90
23497;DHT22;11925;48.122;11.560;2023-10-09T01:57:08;16.10;99.90
23497;DHT22;11925;48.122;11.560;2023-10-09T01:59:41;16.10;99.90
23497;DHT22;11925;48.122;11.560;2023-10-09T02:02:13;16.10;99.90
23497;DHT22;11925;48.122;11.560;2023-10-09T02:04:53;16.10;99.90
23497;DHT22;11925;48.122;11.560;2023-10-09T02:07:21;16.10;99.90
23497;DHT22;11925;48.122;11.560;2023-10-09T02:09:56;16.10;99.90
23497;DHT22;11925;48.122;11.560;2023-10-09T02:12:24;16.10;99.90
23497;DHT22;11925;48.122;11.560;2023-10-09T02:15:00;16.10;99.90
23497;DHT22;11925;48.122;11.560;2023-10-09T02:17:36;16.10;99.90
23497;DHT22;11925;48.122;11.560;2023-10-09T02:20:18;16.10;99.90
23497;DHT22;11925;48.122;11.560;2023-10-09T02:22:55;16.10;99.90
23497;DHT22;11925;48.122;11.560;2023-10-09T02:25:25;16.10;99.90
23497;DHT22;11925;48.122;11.560;2023-10-09T02:28:01;16.10;99.90
23497;DHT22;11925;48.122;11.560;2023-10-09T02:30:33;16.10;99.90
23497;DHT22;11925;48.122;11.560;2023-10-09T02:33:03;16.10;99.90
23497;DHT22;11925;48.122;11.560;2023-10-09T02:35:36;16.10;99.90
23497;DHT22;11925;48.122;11.560;2023-10-09T02:38:05;16.10;99.90
23497;DHT22;11925;48.122;11.560;2023-10-09T02:40:38;16.10;99.90
23497;DHT22;11925;48.122;11.560;2023-10-09T02:43:30;16.10;99.90
23497;DHT22;11925;48.122;11.560;2023-10-09T02:46:01;16.10;99.90
23497;DHT22;11925;48.122;11.560;2023-10-09T02:48:40;16.10;99.90
23497;DHT22;11925;48.122;11.560;2023-10-09T02:51:14;16.10;99.90
23497;DHT22;11925;48.122;11.560;2023-10-09T02:53:59;16.00;99.90
23497;DHT22;11925;48.122;11.560;2023-10-09T02:56:37;16.00;99.90
23497;DHT22;11925;48.122;11.560;2023-10-09T02:59:08;16.00;99.90
23497;DHT22;11925;48.122;11.560;2023-10-09T03:01:38;16.00;99.90
23497;DHT22;11925;48.122;11.560;2023-10-09T03:04:07;16.00;99.90
23497;DHT22;11925;48.122;11.560;2023-10-09T03:06:38;16.00;99.90
23497;DHT22;11925;48.122;11.560;2023-10-09T03:09:13;16.00;99.90
23497;DHT22;11925;48.122;11.560;2023-10-09T03:11:47;16.00;99.90
23497;DHT22;11925;48.122;11.560;2023-10-09T03:14:20;16.00;99.90
23497;DHT22;11925;48.122;11.560;2023-10-09T03:16:52;16.00;99.90
23497;DHT22;11925;48.122;11.560;2023-10-09T03:19:20;16.00;99.90
23497;DHT22;11925;48.122;11.560;2023-10-09T03:21:48;16.00;99.90
23497;DHT22;11925;48.122;11.560;2023-10-09T03:24:17;16.00;99.90
23497;DHT22;11925;48.122;11.560;2023-10-09T03:26:51;16.00;99.90
23497;DHT22;11925;48.122;11.560;2023-10-09T03:29:25;16.00;99.90
23497;DHT22;11925;48.122;11.560;2023-10-09T03:31:55;16.00;99.90
23497;DHT22;11925;48.122;11.560;2023-10-09T03:34:24;16.00;99.90
23497;DHT22;11925;48.122;11.560;2023-10-09T03:36:52;15.90;99.90
23497;DHT22;11925;48.122;11.560;2023-10-09T03:39:31;16.00;99.90
23497;DHT22;11925;48.122;11.560;2023-10-09T03:42:07;16.00;99.90
23497;DHT22;11925;48.122;11.560;2023-10-09T03:44:46;16.00;99.90
23497;DHT22;11925;48.122;11.560;2023-10-09T03:47:20;15.90;99.90
23497;DHT22;11925;48.122;11.560;2023-10-09T03:49:50;15.90;99.90
23497;DHT22;11925;48.122;11.560;2023-10-09T03:52:20;15.90;99.90
23497;DHT22;11925;48.122;11.560;2023-10-09T03:54:53;15.90;99.90
23497;DHT22;11925;48.122;11.560;2023-10-09T03:57:23;15.90;99.90
23497;DHT22;11925;48.122;11.560;2023-10-09T03:59:52;15.90;99.90
23497;DHT22;11925;48.122;11.560;2023-10-09T04:02:22;15.90;99.90
23497;DHT22;11925;48.122;11.560;2023-10-09T04:04:51;15.90;99.90
23497;DHT22;11925;48.122;11.560;2023-10-09T04:07:20;15.90;99.90
23497;DHT22;11925;48.122;11.560;2023-10-09T04:09:48;15.90;99.90
23497;DHT22;11925;48.122;11.560;2023-10-09T04:12:31;15.90;99.90
23497;DHT22;11925;48.122;11.560;2023-10-09T04:15:01;15.90;99.90
23497;DHT22;11925;48.122;11.560;2023-10-09T04:17:33;15.90;99.90
23497;DHT22;11925;48.122;11.560;2023-10-09T04:20:03;15.90;99.90
23497;DHT22;11925;48.122;11.560;2023-10-09T04:22:49;15.90;99.90
23497;DHT22;11925;48.122;11.560;2023-10-09T04:25:19;15.90;99.90
23497;DHT22;11925;48.122;11.560;2023-10-09T04:27:56;15.90;99.90
23497;DHT22;11925;48.122;11.560;2023-10-09T04:30:37;15.90;99.90
23497;DHT22;11925;48.122;11.560;2023-10-09T04:33:10;15.90;99.90
23497;DHT22;11925;48.122;11.560;2023-10-09T04:36:00;15.90;99.90
23497;DHT22;11925;48.122;11.560;2023-10-09T04:38:46;15.90;99.90
23497;DHT22;11925;48.122;11.560;2023-10-09T04:41:23;15.90;99.90
23497;DHT22;11925;48.122;11.560;2023-10-09T04:44:02;15.90;99.90
23497;DHT22;11925;48.122;11.560;2023-10-09T04:46:47;15.90;99.90
23497;DHT22;11925;48.122;11.560;2023-10-09T04:49:30;15.90;99.90
23497;DHT22;11925;48.122;11.560;2023-10-09T04:52:13;15.90;99.90
23497;DHT22;11925;48.122;11.560;2023-10-09T04:54:47;15.90;99.90
23497;DHT22;11925;48.122;11.560;2023-10-09T04:57:29;15.90;99.90
23497;DHT22;11925;48.122;11.560;2023-10-09T05:00:07;15.90;99.90
23497;DHT22;11925;48.122;11.560;2023-10-09T05:02:50;15.80;99.90
23497;DHT22;11925;48.122;11.560;2023-10-09T05:05:22;15.80;99.90
23497;DHT22;11925;48.122;11.560;2023-10-09T05:08:05;15.80;99.90
23497;DHT22;11925;48.122;11.560;2023-10-09T05:10:46;15.80;99.90
23497;DHT22;11925;48.122;11.560;2023-10-09T05:13:33;15.80;99.90
23497;DHT22;11925;48.122;11.560;2023-10-09T05:16:13;15.80;99.90
23497;DHT22;11925;48.122;11.560;2023-10-09T05:18:45;15.80;99.90
23497;DHT22;11925;48.122;11.560;2023-10-09T05:21:23;15.80;99.90
23497;DHT22;11925;48.122;11.560;2023-10-09T05:24:05;15.80;99.90
23497;DHT22;11925;48.122;11.560;2023-10-09T05:26:47;15.80;99.90
23497;DHT22;11925;48.122;11.560;2023-10-09T05:29:41;15.80;99.90
23497;DHT22;11925;48.122;11.560;2023-10-09T05:32:16;15.80;99.90
23497;DHT22;11925;48.122;11.560;2023-10-09T05:34:55;15.80;99.90
23497;DHT22;11925;48.122;11.560;2023-10-09T05:37:43;15.80;99.90
23497;DHT22;11925;48.122;11.560;2023-10-09T05:40:13;15.80;99.90
23497;DHT22;11925;48.122;11.560;2023-10-09T05:42:50;15.80;99.90
23497;DHT22;11925;48.122;11.560;2023-10-09T05:45:30;15.80;99.90
23497;DHT22;11925;48.122;11.560;2023-10-09T05:48:32;15.80;99.90
23497;DHT22;11925;48.122;11.560;2023-10-09T05:51:18;15.80;99.90
23497;DHT22;11925;48.122;11.560;2023-10-09T05:54:03;15.80;99.90
23497;DHT22;11925;48.122;11.560;2023-10-09T05:56:50;15.80;99.90
23497;DHT22;11925;48.122;11.560;2023-10-09T05:59:36;15.80;99.90
23497;DHT22;11925;48.122;11.560;2023-10-09T06:02:21;15.80;99.90
23497;DHT22;11925;48.122;11.560;2023-10-09T06:05:27;15.80;99.90
23497;DHT22;11925;48.122;11.560;2023-10-09T06:08:19;15.80;99.90
23497;DHT22;11925;48.122;11.560;2023-10-09T06:10:52;15.80;99.90
23497;DHT22;11925;48.122;11.560;2023-10-09T06:13:33;15.80;99.90
23497;DHT22;11925;48.122;11.560;2023-10-09T06:16:13;15.80;99.90
23497;DHT22;11925;48.122;11.560;2023-10-09T06:19:09;15.80;99.90
23497;DHT22;11925;48.122;11.560;2023-10-09T06:21:42;15.80;99.90
23497;DHT22;11925;48.122;11.560;2023-10-09T06:24:28;15.80;99.90
23497;DHT22;11925;48.122;11.560;2023-10-09T06:27:09;15.80;99.90
23497;DHT22;11925;48.122;11.560;2023-10-09T06:29:40;15.80;99.90
23497;DHT22;11925;48.122;11.560;2023-10-09T06:32:41;15.80;99.90
23497;DHT22;11925;48.122;11.560;2023-10-09T06:35:18;15.80;99.90
23497;DHT22;11925;48.122;11.560;2023-10-09T06:37:51;15.80;99.90
23497;DHT22;11925;48.122;11.560;2023-10-09T06:40:38;15.80;99.90
23497;DHT22;11925;48.122;11.560;2023-10-09T06:43:24;15.80;99.90
23497;DHT22;11925;48.122;11.560;2023-10-09T06:45:56;15.80;99.90
23497;DHT22;11925;48.122;11.560;2023-10-09T06:48:46;15.80;99.90
23497;DHT22;11925;48.122;11.560;2023-10-09T06:51:23;15.90;99.90
23497;DHT22;11925;48.122;11.560;2023-10-09T06:54:11;15.90;99.90
23497;DHT22;11925;48.122;11.560;2023-10-09T06:56:43;15.80;99.90
23497;DHT22;11925;48.122;11.560;2023-10-09T06:59:29;15.80;99.90
23497;DHT22;11925;48.122;11.560;2023-10-09T07:02:30;15.90;99.90
23497;DHT22;11925;48.122;11.560;2023-10-09T07:05:13;15.90;99.90
23497;DHT22;11925;48.122;11.560;2023-10-09T07:07:44;15.90;99.90
23497;DHT22;11925;48.122;11.560;2023-10-09T07:10:24;15.90;99.90
23497;DHT22;11925;48.122;11.560;2023-10-09T07:13:00;15.90;99.90
23497;DHT22;11925;48.122;11.560;2023-10-09T07:15:30;15.90;99.90
23497;DHT22;11925;48.122;11.560;2023-10-09T07:18:21;15.90;99.90
23497;DHT22;11925;48.122;11.560;2023-10-09T07:21:08;15.90;99.90
23497;DHT22;11925;48.122;11.560;2023-10-09T07:23:45;15.90;99.90
23497;DHT22;11925;48.122;11.560;2023-10-09T07:26:17;15.90;99.90
23497;DHT22;11925;48.122;11.560;2023-10-09T07:28:50;16.00;99.90
23497;DHT22;11925;48.122;11.560;2023-10-09T07:31:28;15.90;99.90
23497;DHT22;11925;48.122;11.560;2023-10-09T07:34:07;15.90;99.90
23497;DHT22;11925;48.122;11.560;2023-10-09T07:36:49;16.00;99.90
23497;DHT22;11925;48.122;11.560;2023-10-09T07:39:23;16.00;99.90
23497;DHT22;11925;48.122;11.560;2023-10-09T07:42:04;16.00;99.90
23497;DHT22;11925;48.122;11.560;2023-10-09T07:44:56;16.00;99.90
23497;DHT22;11925;48.122;11.560;2023-10-09T07:47:25;16.10;99.90
23497;DHT22;11925;48.122;11.560;2023-10-09T07:50:13;16.10;99.90
23497;DHT22;11925;48.122;11.560;2023-10-09T07:52:48;16.10;99.90
23497;DHT22;11925;48.122;11.560;2023-10-09T07:55:17;16.10;99.90
23497;DHT22;11925;48.122;11.560;2023-10-09T07:58:07;16.20;99.90
23497;DHT22;11925;48.122;11.560;2023-10-09T08:00:39;16.20;99.90
23497;DHT22;11925;48.122;11.560;2023-10-09T08:03:34;16.20;99.90
23497;DHT22;11925;48.122;11.560;2023-10-09T08:06:03;16.20;99.90
23497;DHT22;11925;48.122;11.560;2023-10-09T08:08:52;16.20;99.90
23497;DHT22;11925;48.122;11.560;2023-10-09T08:11:34;16.20;99.90
23497;DHT22;11925;48.122;11.560;2023-10-09T08:14:27;16.20;99.90
23497;DHT22;11925;48.122;11.560;2023-10-09T08:17:15;16.20;99.90
23497;DHT22;11925;48.122;11.560;2023-10-09T08:19:49;16.20;99.90
23497;DHT22;11925;48.122;11.560;2023-10-09T08:22:26;16.20;99.90
23497;DHT22;11925;48.122;11.560;2023-10-09T08:25:19;16.30;99.90
23497;DHT22;11925;48.122;11.560;2023-10-09T08:28:00;16.30;99.90
23497;DHT22;11925;48.122;11.560;2023-10-09T08:30:53;16.30;99.90
23497;DHT22;11925;48.122;11.560;2023-10-09T08:33:31;16.30;99.90
23497;DHT22;11925;48.122;11.560;2023-10-09T08:36:10;16.30;99.90
23497;DHT22;11925;48.122;11.560;2023-10-09T08:38:42;16.30;99.90
23497;DHT22;11925;48.122;11.560;2023-10-09T08:41:12;16.30;99.90
23497;DHT22;11925;48.122;11.560;2023-10-09T08:43:47;16.30;99.90
23497;DHT22;11925;48.122;11.560;2023-10-09T08:46:23;16.40;99.90
23497;DHT22;11925;48.122;11.560;2023-10-09T08:48:54;16.40;99.90
23497;DHT22;11925;48.122;11.560;2023-10-09T08:51:24;16.40;99.90
23497;DHT22;11925;48.122;11.560;2023-10-09T08:53:53;16.40;99.90
23497;DHT22;11925;48.122;11.560;2023-10-09T08:56:22;16.40;99.90
23497;DHT22;11925;48.122;11.560;2023-10-09T08:58:51;16.40;99.90
23497;DHT22;11925;48.122;11.560;2023-10-09T09:01:22;16.40;99.90
23497;DHT22;11925;48.122;11.560;2023-10-09T09:03:53;16.40;99.90
23497;DHT22;11925;48.122;11.560;2023-10-09T09:06:23;16.40;99.90
23497;DHT22;11925;48.122;11.560;2023-10-09T09:08:54;16.40;99.90
23497;DHT22;11925;48.122;11.560;2023-10-09T09:11:41;16.40;99.90
23497;DHT22;11925;48.122;11.560;2023-10-09T09:14:15;16.40;99.90
23497;DHT22;11925;48.122;11.560;2023-10-09T09:16:50;16.40;99.90
23497;DHT22;11925;48.122;11.560;2023-10-09T09:19:31;16.40;99.90
23497;DHT22;11925;48.122;11.560;2023-10-09T09:22:05;16.40;99.90
23497;DHT22;11925;48.122;11.560;2023-10-09T09:24:40;16.50;99.90
23497;DHT22;11925;48.122;11.560;2023-10-09T09:27:19;16.50;99.90
23497;DHT22;11925;48.122;11.560;2023-10-09T09:29:47;16.40;99.90
23497;DHT22;11925;48.122;11.560;2023-10-09T09:32:29;16.50;99.90
23497;DHT22;11925;48.122;11.560;2023-10-09T09:35:05;16.40;99.90
23497;DHT22;11925;48.122;11.560;2023-10-09T09:37:51;16.50;99.90
23497;DHT22;11925;48.122;11.560;2023-10-09T09:40:21;16.50;99.90
23497;DHT22;11925;48.122;11.560;2023-10-09T09:43:02;16.50;99.90
23497;DHT22;11925;48.122;11.560;2023-10-09T09:45:35;16.50;99.90
23497;DHT22;11925;48.122;11.560;2023-10-09T09:48:06;16.50;99.90
23497;DHT22;11925;48.122;11.560;2023-10-09T09:50:42;16.50;99.90
23497;DHT22;11925;48.122;11.560;2023-10-09T09:53:12;16.50;99.90
23497;DHT22;11925;48.122;11.560;2023-10-09T09:55:49;16.50;99.90
23497;DHT22;11925;48.122;11.560;2023-10-09T09:58:24;16.50;99.90
23497;DHT22;11925;48.122;11.560;2023-10-09T10:01:00;16.60;99.90
23497;DHT22;11925;48.122;11.560;2023-10-09T10:03:39;16.60;99.90
23497;DHT22;11925;48.122;11.560;2023-10-09T10:06:12;16.60;99.90
23497;DHT22;11925;48.122;11.560;2023-10-09T10:08:41;16.60;99.90
23497;DHT22;11925;48.122;11.560;2023-10-09T10:11:42;16.60;99.90
23497;DHT22;11925;48.122;11.560;2023-10-09T10:14:12;16.60;99.90
23497;DHT22;11925;48.122;11.560;2023-10-09T10:17:03;16.60;99.90
23497;DHT22;11925;48.122;11.560;2023-10-09T10:20:02;16.60;99.90
23497;DHT22;11925;48.122;11.560;2023-10-09T10:23:14;16.60;99.90
23497;DHT22;11925;48.122;11.560;2023-10-09T10:28:27;16.70;99.90
23497;DHT22;11925;48.122;11.560;2023-10-09T10:31:10;16.80;99.90
23497;DHT22;11925;48.122;11.560;2023-10-09T10:34:04;16.80;99.90
23497;DHT22;11925;48.122;11.560;2023-10-09T10:36:39;16.70;99.90
23497;DHT22;11925;48.122;11.560;2023-10-09T10:39:11;16.70;99.90
23497;DHT22;11925;48.122;11.560;2023-10-09T10:41:55;16.70;99.90
23497;DHT22;11925;48.122;11.560;2023-10-09T10:44:29;16.70;99.90
23497;DHT22;11925;48.122;11.560;2023-10-09T10:47:10;16.70;99.90
23497;DHT22;11925;48.122;11.560;2023-10-09T10:49:53;16.70;99.90
23497;DHT22;11925;48.122;11.560;2023-10-09T10:52:28;16.70;99.90
23497;DHT22;11925;48.122;11.560;2023-10-09T10:58:24;16.80;99.90
23497;DHT22;11925;48.122;11.560;2023-10-09T11:00:53;16.80;99.90
23497;DHT22;11925;48.122;11.560;2023-10-09T11:03:40;16.80;99.90
23497;DHT22;11925;48.122;11.560;2023-10-09T11:06:27;16.80;99.90
23497;DHT22;11925;48.122;11.560;2023-10-09T11:09:14;16.80;99.90
23497;DHT22;11925;48.122;11.560;2023-10-09T11:11:50;16.80;99.90
23497;DHT22;11925;48.122;11.560;2023-10-09T11:14:22;16.80;99.90
23497;DHT22;11925;48.122;11.560;2023-10-09T11:16:51;16.80;99.90
23497;DHT22;11925;48.122;11.560;2023-10-09T11:19:25;16.80;99.90
23497;DHT22;11925;48.122;11.560;2023-10-09T11:22:01;16.90;99.90
23497;DHT22;11925;48.122;11.560;2023-10-09T11:24:50;16.90;99.90
23497;DHT22;11925;48.122;11.560;2023-10-09T11:27:40;16.90;99.90
23497;DHT22;11925;48.122;11.560;2023-10-09T11:33:06;16.90;99.90
23497;DHT22;11925;48.122;11.560;2023-10-09T11:35:42;16.90;99.90
23497;DHT22;11925;48.122;11.560;2023-10-09T11:38:24;17.00;99.90
23497;DHT22;11925;48.122;11.560;2023-10-09T11:40:54;17.00;99.90
23497;DHT22;11925;48.122;11.560;2023-10-09T11:43:49;17.10;99.20
23497;DHT22;11925;48.122;11.560;2023-10-09T11:46:22;17.10;99.30
23497;DHT22;11925;48.122;11.560;2023-10-09T11:49:06;17.10;98.90
23497;DHT22;11925;48.122;11.560;2023-10-09T11:52:07;17.10;99.50
23497;DHT22;11925;48.122;11.560;2023-10-09T11:54:53;17.10;99.10
23497;DHT22;11925;48.122;11.560;2023-10-09T11:57:25;17.10;98.90
23497;DHT22;11925;48.122;11.560;2023-10-09T11:59:59;17.10;98.60
23497;DHT22;11925;48.122;11.560;2023-10-09T12:04:59;17.30;96.80
23497;DHT22;11925;48.122;11.560;2023-10-09T12:07:28;17.30;96.80
23497;DHT22;11925;48.122;11.560;2023-10-09T12:09:56;17.30;96.50
23497;DHT22;11925;48.122;11.560;2023-10-09T12:12:26;17.30;96.20
23497;DHT22;11925;48.122;11.560;2023-10-09T12:14:54;17.40;96.00
23497;DHT22;11925;48.122;11.560;2023-10-09T12:17:24;17.30;95.90
23497;DHT22;11925;48.122;11.560;2023-10-09T12:22:23;17.30;95.40
23497;DHT22;11925;48.122;11.560;2023-10-09T12:24:54;17.30;95.40
23497;DHT22;11925;48.122;11.560;2023-10-09T12:27:23;17.30;95.40
23497;DHT22;11925;48.122;11.560;2023-10-09T12:29:53;17.20;95.50
23497;DHT22;11925;48.122;11.560;2023-10-09T12:32:24;17.20;95.60
23497;DHT22;11925;48.122;11.560;2023-10-09T12:34:52;17.20;95.90
23497;DHT22;11925;48.122;11.560;2023-10-09T12:37:21;17.20;95.90
23497;DHT22;11925;48.122;11.560;2023-10-09T12:39:49;17.30;95.80
23497;DHT22;11925;48.122;11.560;2023-10-09T12:42:22;17.30;95.80
23497;DHT22;11925;48.122;11.560;2023-10-09T12:44:51;17.30;95.60
23497;DHT22;11925;48.122;11.560;2023-10-09T12:47:20;17.30;95.60
23497;DHT22;11925;48.122;11.560;2023-10-09T12:49:49;17.30;95.50
23497;DHT22;11925;48.122;11.560;2023-10-09T12:52:21;17.30;95.40
23497;DHT22;11925;48.122;11.560;2023-10-09T12:54:57;17.30;95.40
23497;DHT22;11925;48.122;11.560;2023-10-09T12:57:25;17.30;95.20
23497;DHT22;11925;48.122;11.560;2023-10-09T12:59:53;17.30;95.40
23497;DHT22;11925;48.122;11.560;2023-10-09T13:02:24;17.30;95.20
23497;DHT22;11925;48.122;11.560;2023-10-09T13:04:57;17.30;95.40
23497;DHT22;11925;48.122;11.560;2023-10-09T13:07:27;17.20;95.90
23497;DHT22;11925;48.122;11.560;2023-10-09T13:09:55;17.20;96.70
23497;DHT22;11925;48.122;11.560;2023-10-09T13:12:36;17.20;96.80
23497;DHT22;11925;48.122;11.560;2023-10-09T13:15:08;17.10;97.30
23497;DHT22;11925;48.122;11.560;2023-10-09T13:17:38;17.20;96.50
23497;DHT22;11925;48.122;11.560;2023-10-09T13:20:09;17.20;96.30
23497;DHT22;11925;48.122;11.560;2023-10-09T13:22:41;17.20;96.40
23497;DHT22;11925;48.122;11.560;2023-10-09T13:25:10;17.20;96.20
23497;DHT22;11925;48.122;11.560;2023-10-09T13:28:00;17.20;96.50
23497;DHT22;11925;48.122;11.560;2023-10-09T13:30:31;17.20;96.60
23497;DHT22;11925;48.122;11.560;2023-10-09T13:33:08;17.20;96.90
23497;DHT22;11925;48.122;11.560;2023-10-09T13:35:44;17.20;97.10
23497;DHT22;11925;48.122;11.560;2023-10-09T13:38:17;17.20;97.20
23497;DHT22;11925;48.122;11.560;2023-10-09T13:40:46;17.20;97.20
23497;DHT22;11925;48.122;11.560;2023-10-09T13:43:17;17.20;97.00
23497;DHT22;11925;48.122;11.560;2023-10-09T13:45:49;17.20;97.50
23497;DHT22;11925;48.122;11.560;2023-10-09T13:48:19;17.20;97.70
23497;DHT22;11925;48.122;11.560;2023-10-09T13:50:48;17.10;98.30
23497;DHT22;11925;48.122;11.560;2023-10-09T13:53:16;17.10;99.10
23497;DHT22;11925;48.122;11.560;2023-10-09T13:55:46;17.10;98.70
23497;DHT22;11925;48.122;11.560;2023-10-09T13:58:14;17.10;99.20
23497;DHT22;11925;48.122;11.560;2023-10-09T14:00:48;17.10;99.10
23497;DHT22;11925;48.122;11.560;2023-10-09T14:03:21;17.10;99.20
23497;DHT22;11925;48.122;11.560;2023-10-09T14:05:51;17.10;99.30
23497;DHT22;11925;48.122;11.560;2023-10-09T14:08:22;17.10;99.90
23497;DHT22;11925;48.122;11.560;2023-10-09T14:10:50;17.10;99.60
23497;DHT22;11925;48.122;11.560;2023-10-09T14:13:19;17.10;99.80
23497;DHT22;11925;48.122;11.560;2023-10-09T14:15:53;17.10;99.90
23497;DHT22;11925;48.122;11.560;2023-10-09T14:18:24;17.10;99.90
23497;DHT22;11925;48.122;11.560;2023-10-09T14:21:00;17.10;99.90
23497;DHT22;11925;48.122;11.560;2023-10-09T14:26:02;17.00;99.90
23497;DHT22;11925;48.122;11.560;2023-10-09T14:28:33;17.00;99.90
23497;DHT22;11925;48.122;11.560;2023-10-09T14:31:02;17.00;99.90
23497;DHT22;11925;48.122;11.560;2023-10-09T14:33:34;17.00;99.90
23497;DHT22;11925;48.122;11.560;2023-10-09T14:36:04;17.00;99.90
23497;DHT22;11925;48.122;11.560;2023-10-09T14:38:34;17.00;99.90
23497;DHT22;11925;48.122;11.560;2023-10-09T14:41:06;17.00;99.90
23497;DHT22;11925;48.122;11.560;2023-10-09T14:43:39;17.00;99.90
23497;DHT22;11925;48.122;11.560;2023-10-09T14:46:13;17.00;99.90
23497;DHT22;11925;48.122;11.560;2023-10-09T14:48:43;17.10;99.90
23497;DHT22;11925;48.122;11.560;2023-10-09T14:51:13;17.20;99.90
23497;DHT22;11925;48.122;11.560;2023-10-09T14:53:42;17.20;99.90
23497;DHT22;11925;48.122;11.560;2023-10-09T14:56:11;17.20;99.90
23497;DHT22;11925;48.122;11.560;2023-10-09T17:06:54;17.50;99.90
23497;DHT22;11925;48.122;11.560;2023-10-09T17:09:25;17.40;99.90
23497;DHT22;11925;48.122;11.560;2023-10-09T17:11:54;17.30;99.90
23497;DHT22;11925;48.122;11.560;2023-10-09T17:14:24;17.30;99.90
23497;DHT22;11925;48.122;11.560;2023-10-09T17:19:26;17.30;99.90
23497;DHT22;11925;48.122;11.560;2023-10-09T17:21:55;17.30;99.90
23497;DHT22;11925;48.122;11.560;2023-10-09T17:24:24;17.20;99.90
23497;DHT22;11925;48.122;11.560;2023-10-09T17:26:52;17.20;99.90
23497;DHT22;11925;48.122;11.560;2023-10-09T17:29:23;17.10;99.90
23497;DHT22;11925;48.122;11.560;2023-10-09T17:31:54;17.10;99.90
23497;DHT22;11925;48.122;11.560;2023-10-09T17:34:22;17.10;99.90
23497;DHT22;11925;48.122;11.560;2023-10-09T17:36:55;17.10;99.90
23497;DHT22;11925;48.122;11.560;2023-10-09T17:39:24;17.10;99.90
23497;DHT22;11925;48.122;11.560;2023-10-09T17:41:53;17.10;99.90
23497;DHT22;11925;48.122;11.560;2023-10-09T17:44:22;17.10;99.90
23497;DHT22;11925;48.122;11.560;2023-10-09T17:46:51;17.10;99.90
23497;DHT22;11925;48.122;11.560;2023-10-09T17:49:19;17.10;99.90
23497;DHT22;11925;48.122;11.560;2023-10-09T17:51:51;17.10;99.90
23497;DHT22;11925;48.122;11.560;2023-10-09T17:54:21;17.10;99.90
23497;DHT22;11925;48.122;11.560;2023-10-09T17:56:50;17.10;99.90
23497;DHT22;11925;48.122;11.560;2023-10-09T17:59:19;17.10;99.90
23497;DHT22;11925;48.122;11.560;2023-10-09T18:01:48;17.10;99.90
23497;DHT22;11925;48.122;11.560;2023-10-09T18:04:16;17.10;99.90
23497;DHT22;11925;48.122;11.560;2023-10-09T18:06:45;17.10;99.90
23497;DHT22;11925;48.122;11.560;2023-10-09T18:09:15;17.10;99.90
23497;DHT22;11925;48.122;11.560;2023-10-09T18:11:46;17.10;99.90
23497;DHT22;11925;48.122;11.560;2023-10-09T18:14:15;17.10;99.90
23497;DHT22;11925;48.122;11.560;2023-10-09T18:16:44;17.10;99.90
23497;DHT22;11925;48.122;11.560;2023-10-09T18:19:15;17.10;99.90
23497;DHT22;11925;48.122;11.560;2023-10-09T18:21:47;17.10;99.90
23497;DHT22;11925;48.122;11.560;2023-10-09T18:24:17;17.10;99.90
23497;DHT22;11925;48.122;11.560;2023-10-09T18:26:47;17.00;99.90
23497;DHT22;11925;48.122;11.560;2023-10-09T18:31:46;17.00;99.90
23497;DHT22;11925;48.122;11.560;2023-10-09T18:34:16;17.10;99.90
23497;DHT22;11925;48.122;11.560;2023-10-09T18:36:48;17.00;99.90